This is the latest recevied weather packets stored in our database for station/object OE5RBO. If no packets are shown the sender has not sent any weather packets the latest 10 day(s).
| Time | Temp. | Humidity | Pressure | Rain* | Wind** | Luminosity | Snow |
|---|---|---|---|---|---|---|---|
| 1777745780 | 20° C | 38% | 1016.8 hPa | 0 mm | - | - | - |
| 1777745180 | 20.56° C | 40% | 1017.2 hPa | 0 mm | - | - | - |
| 1777744580 | 21.11° C | 39% | 1017.2 hPa | 0 mm | - | - | - |
| 1777743979 | 21.67° C | 37% | 1017.3 hPa | 0 mm | - | - | - |
| 1777743379 | 22.78° C | 36% | 1017.2 hPa | 0 mm | - | - | - |
| 1777742779 | 23.33° C | 34% | 1017.2 hPa | 0 mm | - | - | - |
| 1777742178 | 23.89° C | 32% | 1017.3 hPa | 0 mm | - | - | - |
| 1777741578 | 24.44° C | 30% | 1017.3 hPa | 0 mm | - | - | - |
| 1777740977 | 25° C | 31% | 1017.3 hPa | 0 mm | - | - | - |
| 1777740377 | 24.44° C | 31% | 1017.3 hPa | 0 mm | - | - | - |
| 1777739777 | 25.56° C | 29% | 1017.5 hPa | 0 mm | - | - | - |
| 1777738576 | 25.56° C | 31% | 1017.6 hPa | 0 mm | - | - | - |
| 1777736174 | 26.11° C | 30% | 1018.1 hPa | 0 mm | - | - | - |
| 1777735574 | 26.11° C | 27% | 1018.2 hPa | 0 mm | - | - | - |
| 1777734974 | 25.56° C | 29% | 1018.3 hPa | 0 mm | - | - | - |
| 1777734374 | 26.11° C | 32% | 1018.4 hPa | 0 mm | - | - | - |
| 1777733773 | 25.56° C | 33% | 1018.5 hPa | 0 mm | - | - | - |
| 1777731972 | 26.11° C | 34% | 1018.9 hPa | 0 mm | - | - | - |
| 1777731371 | 25.56° C | 33% | 1018.9 hPa | 0 mm | - | - | - |
| 1777730771 | 25.56° C | 35% | 1019.1 hPa | 0 mm | - | - | - |
| 1777729571 | 27.78° C | 29% | 1019.3 hPa | 0 mm | - | - | - |
| 1777728970 | 26.67° C | 31% | 1019.4 hPa | 0 mm | - | - | - |
| 1777728370 | 27.78° C | 32% | 1019.4 hPa | 0 mm | - | - | - |
| 1777727769 | 26.67° C | 32% | 1019.7 hPa | 0 mm | - | - | - |
| 1777727169 | 26.67° C | 35% | 1019.9 hPa | 0 mm | - | - | - |
* Rain since midnight (hover to see other rain measurements)
** Current wind speed in m/s (hover to see current wind gust speed)